Terminal Aerodrome Forecast
Issued by NWS Raleigh/Durham, NC

Home | Current Version | Previous Version | Text Only | Print | Product List | Glossary On
Versions: 1 2 3 4 5 6 7 8 9 10 11 12 13 14 15 16 17 18 19 20
000
FTUS42 KRAH 310916 AAA
TAFGSO
TAF AMD
KGSO 310916Z 3109/0106 36005KT P6SM FEW025
      TEMPO 3109/3112 4SM BR BKN004
     FM311400 02006KT P6SM SCT010 BKN025
     FM311600 05008KT P6SM VCSH BKN035
     FM010200 VRB03KT P6SM FEW012 BKN035=

USA.gov is the U.S. government's official web portal to all federal, state and local government web resources and services.